Time;durP1;ratioP1;P1;durP2;ratioP2;P2;SDS_P1;SDS_P2;PMS_P1;PMS_P2;Temp;Humidity;BMP_temperature;BMP_pressure;BME280_temperature;BME280_humidity;BME280_pressure;Samples;Min_cycle;Max_cycle;Signal;HPM_P1;HPM_P2
2021/04/27 00:00:45;;;;;;;23.10;7.80;;;;;;;0.56;100.00;101151.45;1790150;79;21162;-88
2021/04/27 00:03:13;;;;;;;18.95;7.58;;;;;;;0.56;100.00;101154.58;1738765;80;21187;-87
2021/04/27 00:05:39;;;;;;;16.73;6.85;;;;;;;0.55;100.00;101158.24;1790146;80;21104;-88
2021/04/27 00:08:06;;;;;;;17.90;7.45;;;;;;;0.53;100.00;101152.28;1763269;80;21134;-88
2021/04/27 00:10:32;;;;;;;19.92;7.95;;;;;;;0.48;100.00;101148.05;1789925;80;21587;-88
2021/04/27 00:13:00;;;;;;;25.68;8.63;;;;;;;0.43;100.00;101138.78;1790141;80;21159;-87
2021/04/27 00:15:28;;;;;;;20.55;7.83;;;;;;;0.43;100.00;101144.09;1790032;80;21516;-87
2021/04/27 00:17:54;;;;;;;25.17;9.33;;;;;;;0.41;100.00;101146.12;1798526;78;21174;-87
2021/04/27 00:20:24;;;;;;;21.27;8.33;;;;;;;0.37;100.00;101142.16;1801079;78;21567;-87
2021/04/27 00:22:57;;;;;;;24.10;8.80;;;;;;;0.34;100.00;101144.34;1801159;78;21111;-87
2021/04/27 00:25:24;;;;;;;19.65;8.43;;;;;;;0.29;100.00;101142.73;1801448;78;22225;-88
2021/04/27 00:27:52;;;;;;;25.23;8.93;;;;;;;0.22;100.00;101145.27;1801395;78;22456;-88
2021/04/27 00:30:21;;;;;;;24.80;9.13;;;;;;;0.18;100.00;101150.11;1801297;79;21543;-87
2021/04/27 00:32:49;;;;;;;20.25;8.58;;;;;;;0.14;100.00;101150.62;1775074;79;21174;-86
2021/04/27 00:35:16;;;;;;;20.00;7.75;;;;;;;0.05;100.00;101149.87;1801397;78;21170;-88
2021/04/27 00:37:43;;;;;;;22.32;9.20;;;;;;;0.05;100.00;101159.64;1801384;78;21162;-87
2021/04/27 00:40:12;;;;;;;21.70;8.58;;;;;;;0.03;100.00;101156.34;1801395;78;21219;-87
2021/04/27 00:42:41;;;;;;;23.70;8.93;;;;;;;0.01;100.00;101149.09;1801316;78;21094;-87
2021/04/27 00:45:13;;;;;;;20.32;8.15;;;;;;;-0.03;100.00;101153.42;1801401;78;21051;-87
2021/04/27 00:47:38;;;;;;;25.48;9.10;;;;;;;-0.11;100.00;101157.94;1736558;81;21179;-87
2021/04/27 00:50:09;;;;;;;28.05;9.33;;;;;;;-0.16;100.00;101158.45;1737061;81;20973;-87
2021/04/27 00:52:37;;;;;;;29.60;10.08;;;;;;;-0.17;100.00;101156.00;1736628;81;21917;-87
2021/04/27 00:55:07;;;;;;;20.88;8.35;;;;;;;-0.19;100.00;101154.83;1736663;82;21297;-87
2021/04/27 00:57:34;;;;;;;24.07;9.43;;;;;;;-0.20;100.00;101157.17;1736823;81;21611;-87
2021/04/27 01:00:00;;;;;;;21.40;8.85;;;;;;;-0.20;100.00;101155.03;1736872;81;21592;-88
2021/04/27 01:02:27;;;;;;;26.25;9.60;;;;;;;-0.21;100.00;101154.68;1736843;81;21190;-88
2021/04/27 01:04:55;;;;;;;22.45;8.65;;;;;;;-0.25;100.00;101150.24;1736836;81;21186;-88
2021/04/27 01:07:26;;;;;;;25.20;8.75;;;;;;;-0.26;100.00;101156.05;1736764;81;21115;-88
2021/04/27 01:09:57;;;;;;;27.05;9.33;;;;;;;-0.27;100.00;101152.23;1733423;82;21163;-87
2021/04/27 01:12:34;;;;;;;24.23;9.48;;;;;;;-0.31;100.00;101148.30;1677328;84;21600;-88
2021/04/27 01:15:11;;;;;;;21.55;8.35;;;;;;;-0.32;100.00;101158.57;1677638;84;21089;-87
2021/04/27 01:17:39;;;;;;;23.42;8.40;;;;;;;-0.35;100.00;101154.95;1659566;84;21309;-87
2021/04/27 01:20:20;;;;;;;27.87;9.80;;;;;;;-0.38;100.00;101153.94;1646403;86;21155;-88
2021/04/27 01:23:12;;;;;;;23.32;9.05;;;;;;;-0.43;100.00;101150.52;1646147;87;21183;-88
2021/04/27 01:26:03;;;;;;;26.37;9.40;;;;;;;-0.46;100.00;101150.86;1642976;87;21226;-88
2021/04/27 01:28:30;;;;;;;31.33;10.10;;;;;;;-0.50;100.00;101151.71;1646122;87;21195;-87
2021/04/27 01:30:57;;;;;;;25.40;9.88;;;;;;;-0.52;100.00;101155.53;1646038;87;21242;-88
2021/04/27 01:33:28;;;;;;;31.30;12.15;;;;;;;-0.56;100.00;101152.41;1645973;87;21239;-88
2021/04/27 01:35:57;;;;;;;41.40;13.05;;;;;;;-0.59;100.00;101156.72;1623844;86;21198;-87
2021/04/27 01:38:24;;;;;;;37.90;13.20;;;;;;;-0.61;100.00;101158.70;1590163;90;21233;-88
2021/04/27 01:40:52;;;;;;;37.85;13.90;;;;;;;-0.63;100.00;101154.58;1590196;88;21230;-87
2021/04/27 01:43:20;;;;;;;44.60;14.75;;;;;;;-0.66;100.00;101155.74;1590974;88;21250;-88
2021/04/27 01:45:59;;;;;;;40.15;13.65;;;;;;;-0.68;100.00;101156.41;1628442;86;21133;-88
2021/04/27 01:48:25;;;;;;;40.75;14.78;;;;;;;-0.71;100.00;101169.51;1602948;89;21243;-88
2021/04/27 01:50:54;;;;;;;49.38;16.10;;;;;;;-0.73;100.00;101168.03;1582037;89;21169;-88
2021/04/27 01:53:21;;;;;;;51.68;16.57;;;;;;;-0.73;100.00;101168.03;1603257;89;21201;-88
2021/04/27 01:55:49;;;;;;;42.05;14.93;;;;;;;-0.74;100.00;101172.97;1603221;88;22329;-87
2021/04/27 01:58:15;;;;;;;55.23;17.07;;;;;;;-0.77;100.00;101170.16;1603038;89;21658;-87
2021/04/27 02:00:41;;;;;;;53.30;17.90;;;;;;;-0.78;100.00;101165.87;1603070;89;21275;-87
2021/04/27 02:03:07;;;;;;;60.08;17.15;;;;;;;-0.82;100.00;101171.20;1603085;89;21610;-87
2021/04/27 02:05:33;;;;;;;51.83;18.25;;;;;;;-0.83;100.00;101170.84;1603196;89;21243;-87
2021/04/27 02:08:00;;;;;;;57.43;18.35;;;;;;;-0.89;100.00;101164.92;1603178;89;21231;-87
2021/04/27 02:10:27;;;;;;;56.23;18.77;;;;;;;-0.92;100.00;101173.20;1641581;87;21708;-88
2021/04/27 02:12:57;;;;;;;53.85;17.60;;;;;;;-0.93;100.00;101176.34;1642337;87;21649;-88
2021/04/27 02:15:26;;;;;;;53.70;17.02;;;;;;;-0.93;100.00;101174.20;1642398;87;21215;-88
2021/04/27 02:18:06;;;;;;;52.70;16.95;;;;;;;-0.97;100.00;101172.41;1650276;85;21191;-88
2021/04/27 02:20:32;;;;;;;45.33;15.93;;;;;;;-0.99;100.00;101177.53;1630435;88;21621;-88
2021/04/27 02:23:02;;;;;;;49.03;17.07;;;;;;;-0.99;100.00;101178.85;1630374;88;21234;-88
2021/04/27 02:25:29;;;;;;;47.08;14.75;;;;;;;-0.98;100.00;101176.53;1634990;87;21253;-88
2021/04/27 02:27:55;;;;;;;47.38;14.63;;;;;;;-0.97;100.00;101175.52;1640400;87;21185;-88
2021/04/27 02:30:23;;;;;;;43.28;14.83;;;;;;;-1.01;100.00;101170.25;1640550;86;21201;-89
2021/04/27 02:32:50;;;;;;;44.10;15.28;;;;;;;-0.99;100.00;101174.38;1640559;87;22171;-89
2021/04/27 02:35:19;;;;;;;44.03;14.93;;;;;;;-0.99;100.00;101177.03;1658236;83;21127;-89
2021/04/27 02:37:48;;;;;;;36.93;13.80;;;;;;;-0.97;100.00;101179.02;1676520;83;21622;-88
2021/04/27 02:40:22;;;;;;;39.88;13.00;;;;;;;-0.95;100.00;101184.12;1676637;83;21153;-88
2021/04/27 02:42:53;;;;;;;33.28;12.47;;;;;;;-0.91;100.00;101185.45;1676643;83;21209;-87
2021/04/27 02:45:21;;;;;;;42.30;12.30;;;;;;;-0.86;100.00;101192.36;1676530;83;21179;-88
2021/04/27 02:47:47;;;;;;;35.00;12.82;;;;;;;-0.81;100.00;101195.83;1676310;83;21161;-88
2021/04/27 02:50:15;;;;;;;36.42;12.43;;;;;;;-0.74;100.00;101200.25;1676372;85;21198;-89
2021/04/27 02:52:42;;;;;;;31.48;11.63;;;;;;;-0.61;100.00;101201.56;1676414;83;21138;-89
2021/04/27 02:55:12;;;;;;;31.57;11.57;;;;;;;-0.48;100.00;101192.55;1676256;83;21210;-90
2021/04/27 02:57:37;;;;;;;33.98;11.57;;;;;;;-0.29;100.00;101193.97;1711283;80;21178;-89
2021/04/27 03:00:06;;;;;;;33.35;11.68;;;;;;;-0.07;100.00;101198.97;1784619;80;21137;-89
2021/04/27 03:02:32;;;;;;;29.50;10.23;;;;;;;0.17;100.00;101194.00;1784594;80;21123;-89
2021/04/27 03:04:58;;;;;;;25.37;10.15;;;;;;;0.51;100.00;101199.39;1755800;80;21040;-90
2021/04/27 03:07:24;;;;;;;28.90;10.80;;;;;;;0.62;100.00;101201.62;1784709;80;20901;-89
2021/04/27 03:09:50;;;;;;;26.42;10.70;;;;;;;0.75;100.00;101201.00;1784614;80;21670;-89
2021/04/27 03:12:16;;;;;;;31.82;10.38;;;;;;;0.84;100.00;101203.38;1784712;80;20850;-89
2021/04/27 03:14:42;;;;;;;27.65;10.35;;;;;;;0.97;100.00;101203.25;1784729;79;20885;-89
2021/04/27 03:17:07;;;;;;;29.90;10.25;;;;;;;1.05;100.00;101211.95;1786259;79;20969;-89
2021/04/27 03:19:33;;;;;;;21.97;8.90;;;;;;;1.16;100.00;101216.52;1801394;78;21483;-89
2021/04/27 03:21:59;;;;;;;24.80;8.70;;;;;;;1.33;100.00;101221.97;1796818;78;21259;-89
2021/04/27 03:24:25;;;;;;;21.77;8.98;;;;;;;1.47;100.00;101214.50;1801030;78;21629;-90
2021/04/27 03:26:51;;;;;;;18.60;8.08;;;;;;;1.64;100.00;101218.27;1801173;78;21003;-90
2021/04/27 03:29:17;;;;;;;27.22;9.60;;;;;;;1.85;100.00;101220.16;1801396;78;20963;-90
2021/04/27 03:31:42;;;;;;;24.95;9.18;;;;;;;2.02;100.00;101221.58;1801338;78;21115;-90
2021/04/27 03:34:08;;;;;;;22.90;8.98;;;;;;;2.10;100.00;101224.63;1801496;78;21178;-90
2021/04/27 03:36:34;;;;;;;20.97;8.53;;;;;;;2.31;100.00;101222.49;1801327;78;21014;-90
2021/04/27 03:39:00;;;;;;;20.50;8.88;;;;;;;2.46;100.00;101220.59;1801284;78;20999;-89
2021/04/27 03:41:26;;;;;;;18.52;7.62;;;;;;;2.63;100.00;101231.28;1801511;78;20920;-89
2021/04/27 03:43:52;;;;;;;19.62;8.35;;;;;;;2.82;100.00;101231.62;1801561;78;21013;-89
2021/04/27 03:46:18;;;;;;;21.35;9.15;;;;;;;2.96;100.00;101231.53;1801357;78;21909;-89
2021/04/27 03:48:44;;;;;;;20.15;8.68;;;;;;;3.07;100.00;101230.70;1801370;78;20944;-89
2021/04/27 03:51:10;;;;;;;18.77;8.08;;;;;;;3.27;100.00;101234.83;1796930;78;20944;-89
2021/04/27 03:53:35;;;;;;;21.07;8.83;;;;;;;3.32;100.00;101224.39;1801275;79;21562;-89
2021/04/27 03:56:02;;;;;;;22.70;9.73;;;;;;;3.41;100.00;101217.40;1801603;78;21017;-88
2021/04/27 03:58:28;;;;;;;24.80;9.28;;;;;;;3.54;100.00;101219.30;1801464;78;21166;-89
2021/04/27 04:00:53;;;;;;;24.63;9.90;;;;;;;3.73;100.00;101215.05;1801458;78;20943;-89
2021/04/27 04:03:20;;;;;;;25.20;9.38;;;;;;;4.23;100.00;101213.46;1801623;79;21558;-89
2021/04/27 04:05:46;;;;;;;25.57;9.68;;;;;;;4.95;100.00;101214.53;1797398;78;21188;-89
2021/04/27 04:08:12;;;;;;;26.45;8.98;;;;;;;5.42;100.00;101214.74;1774410;79;20916;-89
2021/04/27 04:10:38;;;;;;;24.23;8.83;;;;;;;5.79;100.00;101211.52;1801459;78;21986;-88
2021/04/27 04:13:04;;;;;;;22.52;7.87;;;;;;;6.06;100.00;101215.75;1727851;82;21165;-88
2021/04/27 04:15:30;;;;;;;19.27;8.28;;;;;;;6.25;100.00;101212.63;1728189;83;20953;-88
2021/04/27 04:17:56;;;;;;;20.32;8.35;;;;;;;6.23;100.00;101210.68;1702241;83;21142;-89
2021/04/27 04:20:24;;;;;;;20.55;8.03;;;;;;;6.27;100.00;101212.44;1728099;83;21182;-88
2021/04/27 04:22:51;;;;;;;21.93;8.60;;;;;;;6.25;100.00;101206.47;1727902;83;21202;-89
2021/04/27 04:25:19;;;;;;;21.25;8.43;;;;;;;6.44;100.00;101214.89;1727911;83;21142;-89
2021/04/27 04:27:45;;;;;;;19.30;8.40;;;;;;;6.41;100.00;101211.80;1727938;83;21172;-88
2021/04/27 04:30:16;;;;;;;18.23;8.38;;;;;;;6.66;100.00;101207.30;1727943;83;21175;-89
2021/04/27 04:32:43;;;;;;;32.63;11.78;;;;;;;6.72;100.00;101206.42;1727747;83;21259;-89
2021/04/27 04:35:11;;;;;;;23.32;9.88;;;;;;;6.80;100.00;101208.02;1727936;83;21199;-89
2021/04/27 04:37:39;;;;;;;21.35;9.13;;;;;;;6.97;100.00;101198.38;1762749;78;21153;-89
2021/04/27 04:40:10;;;;;;;21.62;8.70;;;;;;;7.20;100.00;101200.39;1801433;78;21114;-89
2021/04/27 04:42:36;;;;;;;21.45;8.35;;;;;;;8.54;100.00;101195.48;1801439;78;21034;-89
2021/04/27 04:45:06;;;;;;;20.17;7.25;;;;;;;9.52;100.00;101197.94;1774483;79;21158;-89
2021/04/27 04:47:32;;;;;;;15.00;6.75;;;;;;;9.72;100.00;101204.27;1736829;81;21159;-89
2021/04/27 04:49:59;;;;;;;16.97;6.53;;;;;;;9.61;100.00;101198.39;1737032;81;21199;-88
2021/04/27 04:52:25;;;;;;;15.72;6.90;;;;;;;9.56;100.00;101205.84;1736826;81;21084;-88
2021/04/27 04:54:51;;;;;;;14.30;5.87;;;;;;;9.46;100.00;101199.70;1736810;81;21138;-88
2021/04/27 04:57:17;;;;;;;15.95;5.87;;;;;;;9.09;100.00;101200.00;1736929;81;21091;-88
2021/04/27 04:59:43;;;;;;;32.03;5.92;;;;;;;8.89;100.00;101204.91;1736878;81;21468;-88
2021/04/27 05:02:09;;;;;;;12.50;5.37;;;;;;;8.90;100.00;101201.17;1736888;81;21080;-88
2021/04/27 05:04:35;;;;;;;12.63;4.60;;;;;;;8.26;100.00;101203.59;1736957;81;21005;-87
2021/04/27 05:07:07;;;;;;;12.98;4.80;;;;;;;8.26;100.00;101203.59;1736802;82;21128;-89
2021/04/27 05:09:32;;;;;;;14.63;4.75;;;;;;;8.14;100.00;101209.46;1736614;81;21178;-88
2021/04/27 05:11:59;;;;;;;12.23;4.47;;;;;;;7.99;100.00;101201.83;1736885;81;22000;-88
2021/04/27 05:14:26;;;;;;;10.98;4.62;;;;;;;7.82;100.00;101208.34;1736768;81;21180;-88
2021/04/27 05:16:52;;;;;;;11.93;4.83;;;;;;;7.64;100.00;101202.47;1736710;81;21683;-88
2021/04/27 05:19:18;;;;;;;13.53;5.25;;;;;;;7.77;100.00;101200.70;1705875;81;21170;-88
2021/04/27 05:21:45;;;;;;;13.93;5.50;;;;;;;7.98;100.00;101196.17;1696193;83;21580;-88
2021/04/27 05:24:11;;;;;;;13.05;5.30;;;;;;;8.06;100.00;101197.70;1696070;83;21525;-88
2021/04/27 05:26:37;;;;;;;25.57;7.47;;;;;;;8.58;100.00;101192.61;1695952;84;21176;-88
2021/04/27 05:29:04;;;;;;;13.48;6.78;;;;;;;8.50;100.00;101197.81;1696099;84;20906;-88
2021/04/27 05:31:30;;;;;;;14.50;6.53;;;;;;;9.01;100.00;101195.52;1695920;83;21162;-88
2021/04/27 05:33:56;;;;;;;16.07;6.28;;;;;;;9.76;100.00;101188.77;1696140;84;21199;-91
2021/04/27 05:36:22;;;;;;;16.52;6.28;;;;;;;10.49;100.00;101189.00;1696216;83;21231;-90
2021/04/27 05:38:48;;;;;;;13.48;6.25;;;;;;;10.30;100.00;101187.61;1696047;83;21112;-91
2021/04/27 05:41:14;;;;;;;12.43;6.55;;;;;;;10.43;88.88;101191.32;1696088;83;21088;-87
2021/04/27 05:43:40;;;;;;;19.02;7.47;;;;;;;11.03;88.91;101186.61;1696123;84;21143;-86
2021/04/27 05:46:06;;;;;;;16.50;7.33;;;;;;;11.81;91.17;101185.14;1700136;82;21016;-87
2021/04/27 05:48:32;;;;;;;20.62;8.10;;;;;;;12.05;75.00;101183.80;1696104;83;21263;-83
2021/04/27 05:50:58;;;;;;;18.45;8.25;;;;;;;12.33;69.65;101178.41;1743311;80;21032;-83
2021/04/27 05:53:23;;;;;;;21.33;9.08;;;;;;;11.57;72.22;101186.77;1781604;79;21174;-83
2021/04/27 05:55:49;;;;;;;18.87;7.15;;;;;;;11.44;69.54;101175.52;1781766;79;21556;-83
2021/04/27 05:58:15;;;;;;;17.48;6.92;;;;;;;11.24;75.98;101178.80;1781763;80;20909;-83
2021/04/27 06:00:42;;;;;;;13.70;5.65;;;;;;;10.90;72.10;101178.31;1781696;80;22010;-82
2021/04/27 06:03:08;;;;;;;11.57;5.50;;;;;;;10.89;70.70;101183.44;1781545;80;21051;-83
2021/04/27 06:05:34;;;;;;;15.75;7.05;;;;;;;10.48;71.74;101180.64;1781743;79;21528;-83
2021/04/27 06:08:00;;;;;;;15.10;6.70;;;;;;;10.21;75.43;101182.58;1781781;80;21152;-82
2021/04/27 06:10:26;;;;;;;18.02;7.12;;;;;;;10.21;76.10;101202.78;1776813;80;20929;-82
2021/04/27 06:12:52;;;;;;;15.13;6.17;;;;;;;10.12;71.93;101196.69;1781794;80;21207;-84
2021/04/27 06:15:18;;;;;;;14.23;6.10;;;;;;;9.80;73.96;101193.67;1781892;79;20956;-83
2021/04/27 06:17:45;;;;;;;19.55;6.80;;;;;;;9.69;74.62;101189.95;1747397;80;21662;-83
2021/04/27 06:20:13;;;;;;;17.62;6.50;;;;;;;9.47;76.09;101196.48;1799629;79;21586;-84
2021/04/27 06:22:39;;;;;;;19.45;6.45;;;;;;;9.38;76.70;101200.06;1772046;79;21146;-83
2021/04/27 06:25:08;;;;;;;16.93;6.53;;;;;;;9.40;76.95;101205.23;1798765;79;21935;-84
2021/04/27 06:27:35;;;;;;;17.35;6.67;;;;;;;9.25;77.38;101207.88;1798545;79;21161;-83
2021/04/27 06:30:02;;;;;;;19.23;6.47;;;;;;;9.23;77.92;101207.81;1794277;79;21177;-84
2021/04/27 06:32:28;;;;;;;17.87;7.28;;;;;;;9.02;78.30;101213.27;1798810;79;21138;-84
2021/04/27 06:34:54;;;;;;;22.25;7.50;;;;;;;8.93;80.41;101211.98;1772170;79;21110;-84
2021/04/27 06:37:21;;;;;;;20.77;7.17;;;;;;;8.89;82.83;101210.30;1798872;79;21155;-84
2021/04/27 06:39:47;;;;;;;19.00;6.75;;;;;;;9.03;82.24;101205.48;1798802;79;21640;-83
2021/04/27 06:42:14;;;;;;;19.30;6.35;;;;;;;8.89;83.98;101210.83;1798800;78;21157;-84
2021/04/27 06:44:40;;;;;;;18.40;6.42;;;;;;;9.17;80.75;101206.87;1799062;79;21102;-84
2021/04/27 06:47:08;;;;;;;18.87;6.37;;;;;;;9.19;79.88;101203.44;1799001;79;21610;-84
2021/04/27 06:49:35;;;;;;;14.43;6.12;;;;;;;9.25;79.40;101211.09;1798939;79;21134;-83
2021/04/27 06:52:01;;;;;;;13.50;5.50;;;;;;;9.51;76.86;101217.31;1798832;79;21121;-84
2021/04/27 06:54:27;;;;;;;13.48;5.45;;;;;;;9.63;74.15;101211.09;1799003;79;21095;-84
2021/04/27 06:56:53;;;;;;;13.45;5.35;;;;;;;9.77;75.51;101212.45;1771791;79;21601;-83
2021/04/27 06:59:21;;;;;;;12.00;4.55;;;;;;;9.97;73.11;101206.13;1798966;79;20905;-83
2021/04/27 07:01:48;;;;;;;11.22;4.78;;;;;;;10.15;72.55;101211.02;1798862;79;21245;-84
2021/04/27 07:04:15;;;;;;;11.30;4.55;;;;;;;10.26;69.22;101211.47;1798814;79;21118;-84
2021/04/27 07:06:41;;;;;;;13.53;5.22;;;;;;;10.26;68.74;101212.81;1798774;79;21055;-84
2021/04/27 07:09:07;;;;;;;17.42;5.05;;;;;;;10.34;69.38;101211.64;1798953;79;20995;-83
2021/04/27 07:11:33;;;;;;;9.93;4.78;;;;;;;10.55;68.97;101214.97;1798784;79;21178;-84
2021/04/27 07:14:00;;;;;;;11.85;5.17;;;;;;;10.79;67.16;101215.62;1735814;81;21925;-84
2021/04/27 07:16:26;;;;;;;14.98;4.97;;;;;;;10.85;66.27;101215.17;1735918;82;21197;-84
2021/04/27 07:18:51;;;;;;;14.45;5.50;;;;;;;10.79;67.38;101218.31;1710216;82;21155;-84
2021/04/27 07:21:20;;;;;;;12.18;4.83;;;;;;;10.79;65.14;101213.45;1733053;82;20956;-84
2021/04/27 07:23:46;;;;;;;9.93;3.77;;;;;;;10.87;63.55;101211.16;1732975;82;21151;-84
2021/04/27 07:26:12;;;;;;;9.68;4.03;;;;;;;10.85;62.00;101212.47;1733053;82;21257;-84
2021/04/27 07:28:38;;;;;;;10.55;3.87;;;;;;;10.63;60.90;101216.45;1733087;82;21682;-84
2021/04/27 07:31:04;;;;;;;14.00;4.50;;;;;;;10.86;61.42;101215.47;1733255;82;21146;-85
2021/04/27 07:33:30;;;;;;;11.38;4.50;;;;;;;10.75;61.67;101219.06;1733304;82;21016;-84
2021/04/27 07:35:56;;;;;;;12.60;4.50;;;;;;;10.75;62.04;101217.72;1733415;82;21023;-84
2021/04/27 07:38:23;;;;;;;13.88;5.37;;;;;;;10.88;61.49;101218.21;1761085;79;21195;-86
2021/04/27 07:40:49;;;;;;;16.97;5.42;;;;;;;10.97;61.49;101225.36;1801484;78;21963;-86
2021/04/27 07:43:15;;;;;;;13.80;4.92;;;;;;;10.87;61.57;101223.84;1801648;78;21709;-85
2021/04/27 07:45:42;;;;;;;16.73;5.50;;;;;;;11.02;59.19;101225.41;1801611;79;21591;-85
2021/04/27 07:48:09;;;;;;;15.45;5.40;;;;;;;10.56;61.89;101229.25;1801639;78;21146;-85
2021/04/27 07:50:36;;;;;;;13.13;5.28;;;;;;;10.67;62.42;101229.17;1801674;78;21169;-85
2021/04/27 07:53:04;;;;;;;16.50;5.55;;;;;;;10.61;64.20;101227.46;1801427;78;21106;-85
2021/04/27 07:55:31;;;;;;;11.33;4.87;;;;;;;10.55;65.65;101224.94;1774418;79;21173;-85
2021/04/27 07:57:57;;;;;;;15.03;5.00;;;;;;;10.70;68.18;101229.22;1801511;78;21528;-85
2021/04/27 08:00:24;;;;;;;12.50;5.10;;;;;;;10.58;68.12;101227.14;1801594;79;20932;-85
2021/04/27 08:02:51;;;;;;;15.60;5.12;;;;;;;10.43;69.13;101227.16;1801634;78;21161;-85
2021/04/27 08:05:19;;;;;;;15.55;6.25;;;;;;;10.52;71.12;101226.77;1801727;78;21115;-84
2021/04/27 08:07:46;;;;;;;11.78;4.67;;;;;;;10.54;73.54;101220.08;1802305;78;21186;-86
2021/04/27 08:10:14;;;;;;;10.75;4.78;;;;;;;10.41;78.08;101219.03;1801488;78;21177;-84
2021/04/27 08:12:49;;;;;;;13.48;4.70;;;;;;;10.35;79.54;101226.23;1801528;78;21122;-85
2021/04/27 08:15:20;;;;;;;12.98;4.33;;;;;;;10.48;82.05;101220.24;1801495;78;21465;-84
2021/04/27 08:17:47;;;;;;;10.48;4.40;;;;;;;10.39;84.95;101231.41;1797817;79;21547;-86
2021/04/27 08:20:15;;;;;;;11.63;4.53;;;;;;;10.23;88.65;101220.88;1756833;79;21107;-85
2021/04/27 08:22:43;;;;;;;9.98;3.67;;;;;;;10.37;87.47;101226.78;1781737;80;21083;-85
2021/04/27 08:25:09;;;;;;;7.35;3.17;;;;;;;10.15;94.24;101220.45;1781659;80;21095;-85
2021/04/27 08:27:36;;;;;;;8.78;3.12;;;;;;;10.42;91.57;101216.11;1781620;79;21191;-85
2021/04/27 08:30:04;;;;;;;5.92;2.75;;;;;;;10.64;90.05;101216.19;1781600;79;21056;-85
2021/04/27 08:32:30;;;;;;;9.33;3.40;;;;;;;10.87;88.10;101213.05;1781693;79;21572;-84
2021/04/27 08:34:56;;;;;;;6.50;3.45;;;;;;;11.16;84.28;101207.01;1781624;79;21484;-84
2021/04/27 08:37:23;;;;;;;9.10;2.75;;;;;;;11.42;81.95;101210.88;1751368;80;21151;-84
2021/04/27 08:39:49;;;;;;;9.55;2.65;;;;;;;11.85;76.92;101203.00;1781548;80;21907;-84
2021/04/27 08:42:16;;;;;;;5.25;2.55;;;;;;;12.37;70.93;101200.59;1781556;80;21560;-84
2021/04/27 08:44:42;;;;;;;7.20;3.00;;;;;;;12.54;70.76;101204.53;1781624;80;21099;-85
2021/04/27 08:47:10;;;;;;;7.08;3.37;;;;;;;13.02;64.30;101204.06;1776310;80;20909;-84
2021/04/27 08:49:37;;;;;;;8.48;3.50;;;;;;;12.79;65.14;101198.48;1781607;80;21199;-85
2021/04/27 08:52:04;;;;;;;8.08;3.80;;;;;;;13.05;64.57;101197.31;1781489;80;21167;-85
2021/04/27 08:54:30;;;;;;;12.43;4.30;;;;;;;12.85;62.58;101196.64;1781683;80;21115;-85
2021/04/27 08:56:57;;;;;;;9.48;3.98;;;;;;;12.68;65.03;101192.75;1781474;80;21536;-85
2021/04/27 08:59:23;;;;;;;8.78;3.67;;;;;;;12.69;65.79;101191.66;1781690;80;21123;-84
2021/04/27 09:01:49;;;;;;;9.78;3.87;;;;;;;12.91;64.42;101186.13;1781662;79;21533;-85
2021/04/27 09:04:39;;;;;;;9.05;4.05;;;;;;;13.36;57.86;101183.45;1781759;79;21013;-85
2021/04/27 09:07:18;;;;;;;11.48;4.47;;;;;;;13.33;58.86;101186.69;1781565;80;21079;-84
2021/04/27 09:09:53;;;;;;;10.55;4.55;;;;;;;13.33;58.50;101185.33;1696824;82;21179;-84
2021/04/27 09:12:23;;;;;;;11.90;4.50;;;;;;;13.31;57.91;101180.71;1695943;84;21092;-85
2021/04/27 09:14:51;;;;;;;10.80;4.55;;;;;;;12.94;57.66;101190.50;1696297;83;21172;-85
2021/04/27 09:17:18;;;;;;;13.90;4.75;;;;;;;13.08;57.60;101188.12;1696058;84;21157;-86
2021/04/27 09:19:47;;;;;;;11.48;4.60;;;;;;;12.89;56.84;101185.59;1696150;82;21143;-85
2021/04/27 09:22:18;;;;;;;11.25;4.35;;;;;;;12.38;58.34;101175.72;1696055;82;21205;-85
2021/04/27 09:24:49;;;;;;;9.10;3.10;;;;;;;11.53;62.11;101195.09;1696217;83;21267;-85
2021/04/27 09:27:42;;;;;;;8.70;2.62;;;;;;;11.94;61.23;101178.55;1625932;88;21172;-84
2021/04/27 09:30:26;;;;;;;6.67;2.77;;;;;;;11.79;63.21;101175.96;1626129;88;21247;-85
2021/04/27 09:33:03;;;;;;;7.10;2.65;;;;;;;12.38;59.14;101167.61;1626132;88;21161;-84
2021/04/27 09:35:42;;;;;;;7.60;2.85;;;;;;;12.02;61.15;101180.26;1626028;87;21236;-83
2021/04/27 09:38:26;;;;;;;5.72;2.87;;;;;;;12.15;60.96;101170.95;1626156;88;21188;-84
2021/04/27 09:41:05;;;;;;;6.78;3.25;;;;;;;12.59;58.42;101163.18;1626249;88;21168;-85
2021/04/27 09:43:37;;;;;;;10.80;3.77;;;;;;;12.58;59.78;101166.97;1582310;90;21636;-84
2021/04/27 09:46:11;;;;;;;5.50;3.27;;;;;;;13.01;56.91;101163.75;1549923;92;21189;-84
2021/04/27 09:49:06;;;;;;;8.05;3.62;;;;;;;12.75;57.59;101163.58;1534782;92;21265;-84
2021/04/27 09:51:36;;;;;;;5.17;3.37;;;;;;;12.95;58.01;101164.25;1535034;93;21205;-84
2021/04/27 09:54:05;;;;;;;6.85;2.95;;;;;;;12.81;57.29;101172.55;1535338;92;21252;-85
2021/04/27 09:56:51;;;;;;;6.65;2.72;;;;;;;12.42;57.79;101168.20;1535497;93;21867;-84
2021/04/27 09:59:30;;;;;;;5.62;2.33;;;;;;;12.36;58.04;101163.83;1534684;93;21225;-85
2021/04/27 10:04:29;;;;;;;4.33;2.30;;;;;;;12.25;59.17;101166.97;1513221;92;21290;-85
2021/04/27 10:07:00;;;;;;;3.65;2.20;;;;;;;12.42;59.25;101173.61;1557755;92;21129;-84
2021/04/27 10:09:28;;;;;;;4.60;2.30;;;;;;;12.37;60.23;101180.86;1557722;92;21272;-85
2021/04/27 10:11:55;;;;;;;3.12;1.95;;;;;;;11.96;63.92;101175.06;1557631;92;21184;-84
2021/04/27 10:14:22;;;;;;;2.72;1.85;;;;;;;12.27;60.74;101172.95;1557611;92;21121;-84
2021/04/27 10:16:49;;;;;;;3.08;2.00;;;;;;;12.24;58.92;101176.16;1534398;92;21713;-85
2021/04/27 10:19:15;;;;;;;4.25;2.10;;;;;;;11.96;60.10;101184.52;1529627;92;21302;-86
2021/04/27 10:21:49;;;;;;;3.12;1.85;;;;;;;11.32;64.65;101185.09;1519314;93;22052;-84
2021/04/27 10:24:18;;;;;;;7.28;2.75;;;;;;;11.54;65.23;101181.87;1534052;93;21249;-84
2021/04/27 10:26:47;;;;;;;4.12;1.85;;;;;;;11.52;67.20;101186.69;1534260;93;21189;-85
2021/04/27 10:29:24;;;;;;;4.87;2.20;;;;;;;11.66;65.63;101177.69;1534061;92;21205;-84
2021/04/27 10:32:19;;;;;;;6.40;2.10;;;;;;;11.36;67.15;101178.14;1584723;90;21270;-84
2021/04/27 10:35:03;;;;;;;4.42;2.08;;;;;;;11.46;68.75;101178.80;1577365;91;21302;-84
2021/04/27 10:37:32;;;;;;;7.28;2.72;;;;;;;11.62;69.60;101173.88;1577442;91;21951;-84
2021/04/27 10:39:58;;;;;;;5.20;2.60;;;;;;;11.58;69.19;101174.08;1584323;90;21234;-85
2021/04/27 10:42:33;;;;;;;4.62;2.42;;;;;;;11.75;68.84;101175.36;1584624;90;21229;-85
2021/04/27 10:45:09;;;;;;;6.62;2.60;;;;;;;11.72;71.15;101165.87;1571704;90;21109;-85
2021/04/27 10:47:45;;;;;;;4.37;2.67;;;;;;;11.80;70.18;101168.13;1586266;90;21249;-83
2021/04/27 10:50:28;;;;;;;5.62;2.30;;;;;;;11.49;73.17;101170.19;1530815;93;21210;-84
2021/04/27 10:52:54;;;;;;;5.03;2.72;;;;;;;11.24;79.70;101149.93;1531227;92;21221;-84
2021/04/27 10:55:36;;;;;;;5.20;2.90;;;;;;;11.24;79.70;101149.93;1531213;93;21020;-84
2021/04/27 10:58:17;;;;;;;4.67;2.52;;;;;;;11.28;82.84;101160.49;1554196;92;21225;-86
2021/04/27 11:00:42;;;;;;;5.55;3.02;;;;;;;11.27;82.81;101156.71;1542980;87;21159;-84
2021/04/27 11:03:27;;;;;;;7.92;2.80;;;;;;;10.94;87.58;101171.08;1631798;87;21226;-84
2021/04/27 11:06:01;;;;;;;5.08;2.72;;;;;;;10.68;94.10;101163.44;1631906;87;21242;-85
2021/04/27 11:08:55;;;;;;;4.28;2.50;;;;;;;10.85;92.60;101167.98;1631933;87;21219;-84
2021/04/27 11:11:32;;;;;;;;;;;;;;;10.82;92.75;101167.94;1634450;87;21135;-84
2021/04/27 11:14:21;;;;;;;6.12;2.80;;;;;;;10.92;89.92;101167.30;1632041;87;22039;-83
2021/04/27 11:16:56;;;;;;;6.10;2.83;;;;;;;10.82;93.84;101169.29;1627268;88;37578;-85
2021/04/27 11:19:35;;;;;;;3.80;2.22;;;;;;;10.45;100.00;101172.51;1626712;87;21286;-85
2021/04/27 11:22:29;;;;;;;4.90;2.77;;;;;;;10.50;100.00;101168.25;1618039;88;21535;-83
2021/04/27 11:24:53;;;;;;;4.90;2.60;;;;;;;10.39;100.00;101168.63;1614690;88;21228;-83
2021/04/27 11:27:25;;;;;;;6.83;2.40;;;;;;;10.07;100.00;101168.31;1596621;88;21232;-83